createdAt,value
2023-03-26T00:00:54.271Z,99898.84
2023-03-26T00:03:57.952Z,99900.66
2023-03-26T00:07:00.160Z,99901.87
2023-03-26T00:10:02.149Z,99893.09
2023-03-26T00:13:04.653Z,99888.97
2023-03-26T00:16:06.880Z,99889.38
2023-03-26T00:19:09.108Z,99889.34
2023-03-26T00:22:13.625Z,99894.00
2023-03-26T00:25:15.975Z,99895.06
2023-03-26T00:28:21.489Z,99888.25
2023-03-26T00:31:23.418Z,99890.69
2023-03-26T00:34:26.659Z,99874.97
2023-03-26T00:37:28.588Z,99894.19
2023-03-26T00:40:32.103Z,99896.13
2023-03-26T00:43:34.816Z,99895.94
2023-03-26T00:46:37.095Z,99894.34
2023-03-26T00:49:39.540Z,99876.38
2023-03-26T00:52:42.927Z,99872.34
2023-03-26T00:55:45.803Z,99872.03
2023-03-26T00:58:50.255Z,99874.66
2023-03-26T01:01:55.023Z,99856.72
2023-03-26T01:04:57.968Z,99854.03
2023-03-26T01:08:15.078Z,99851.81
2023-03-26T01:11:16.937Z,99863.06
2023-03-26T01:14:20.466Z,99861.78
2023-03-26T01:17:22.466Z,99862.88
2023-03-26T01:20:26.919Z,99858.41
2023-03-26T01:23:30.880Z,99866.03
2023-03-26T01:26:36.514Z,99858.50
2023-03-26T01:29:39.345Z,99863.72
2023-03-26T01:32:47.583Z,99871.22
2023-03-26T01:35:52.640Z,99868.50
2023-03-26T01:39:27.380Z,99862.38
2023-03-26T01:42:47.982Z,99854.41
2023-03-26T01:45:49.920Z,99868.47
2023-03-26T01:48:52.070Z,99872.34
2023-03-26T01:51:55.641Z,99877.59
2023-03-26T01:54:57.697Z,99871.66
2023-03-26T01:58:09.208Z,99867.56
2023-03-26T02:01:12.881Z,99862.06
2023-03-26T02:04:37.865Z,99880.00
2023-03-26T02:07:39.675Z,99885.25
2023-03-26T02:10:42.524Z,99863.34
2023-03-26T02:13:45.054Z,99876.09
2023-03-26T02:16:47.956Z,99887.00
2023-03-26T02:19:50.128Z,99899.69
2023-03-26T02:22:52.032Z,99896.84
2023-03-26T02:25:54.076Z,99870.06
2023-03-26T02:28:56.826Z,99890.72
2023-03-26T02:31:58.766Z,99893.50
2023-03-26T02:35:00.907Z,99891.63
2023-03-26T02:38:02.895Z,99886.37
2023-03-26T02:41:05.005Z,99881.69
2023-03-26T02:44:06.955Z,99875.31
2023-03-26T02:47:08.830Z,99875.97
2023-03-26T02:50:12.035Z,99873.53
2023-03-26T02:53:14.030Z,99870.78
2023-03-26T02:56:15.978Z,99868.22
2023-03-26T02:59:17.915Z,99850.53
2023-03-26T03:02:20.289Z,99859.62
2023-03-26T03:05:26.725Z,99869.59
2023-03-26T03:08:29.328Z,99869.78
2023-03-26T03:11:31.459Z,99874.03
2023-03-26T03:14:33.305Z,99873.53
2023-03-26T03:17:35.493Z,99874.25
2023-03-26T03:20:37.825Z,99866.97
2023-03-26T03:23:39.675Z,99869.03
2023-03-26T03:26:42.482Z,99869.97
2023-03-26T03:29:44.387Z,99876.53
2023-03-26T03:32:46.249Z,99863.69
2023-03-26T03:35:49.637Z,99864.50
2023-03-26T03:38:51.588Z,99872.81
2023-03-26T03:41:53.817Z,99860.81
2023-03-26T03:44:55.844Z,99850.59
2023-03-26T03:47:57.693Z,99864.53
2023-03-26T03:50:59.560Z,99870.50
2023-03-26T03:54:01.478Z,99891.63
2023-03-26T03:57:03.565Z,99889.19
2023-03-26T04:00:09.002Z,99887.78
2023-03-26T04:03:14.407Z,99890.88
2023-03-26T04:06:19.005Z,99883.97
2023-03-26T04:09:21.097Z,99885.75
2023-03-26T04:12:23.046Z,99889.72
2023-03-26T04:15:24.915Z,99902.31
2023-03-26T04:18:27.941Z,99897.97
2023-03-26T04:21:33.945Z,99896.66
2023-03-26T04:24:40.258Z,99885.91
2023-03-26T04:27:43.429Z,99895.56
2023-03-26T04:30:45.348Z,99885.44
2023-03-26T04:33:47.277Z,99883.97
2023-03-26T04:36:49.117Z,99891.03
2023-03-26T04:39:50.992Z,99893.97
2023-03-26T04:42:54.702Z,99871.81
2023-03-26T04:45:56.835Z,99886.28
2023-03-26T04:48:59.032Z,99894.19
2023-03-26T04:52:00.929Z,99902.63
2023-03-26T04:55:02.851Z,99902.69
2023-03-26T04:58:05.617Z,99897.75
2023-03-26T05:01:11.188Z,99907.03
2023-03-26T05:04:13.644Z,99905.59
2023-03-26T05:07:25.427Z,99903.53
2023-03-26T05:10:27.325Z,99896.78
2023-03-26T05:13:29.192Z,99894.63
2023-03-26T05:16:31.922Z,99868.88
2023-03-26T05:19:33.873Z,99890.56
2023-03-26T05:22:38.130Z,99884.34
2023-03-26T05:25:40.477Z,99885.75
2023-03-26T05:28:42.346Z,99894.34
2023-03-26T05:31:44.451Z,99891.28
2023-03-26T05:34:46.268Z,99877.28
2023-03-26T05:37:49.735Z,99881.03
2023-03-26T05:40:51.609Z,99872.81
2023-03-26T05:43:53.558Z,99871.22
2023-03-26T05:46:55.406Z,99867.31
2023-03-26T05:49:57.231Z,99877.22
2023-03-26T05:52:59.089Z,99875.97
2023-03-26T05:56:02.128Z,99875.47
2023-03-26T05:59:04.030Z,99876.53
2023-03-26T06:02:06.436Z,99868.97
2023-03-26T06:05:09.888Z,99872.03
2023-03-26T06:08:11.933Z,99864.09
2023-03-26T06:11:13.847Z,99872.09
2023-03-26T06:14:15.855Z,99852.28
2023-03-26T06:17:18.036Z,99856.94
2023-03-26T06:20:20.026Z,99863.25
2023-03-26T06:23:23.259Z,99852.69
2023-03-26T06:26:25.853Z,99851.56
2023-03-26T06:29:27.764Z,99858.81
2023-03-26T06:32:29.948Z,99840.13
2023-03-26T06:35:32.162Z,99840.87
2023-03-26T06:38:34.009Z,99853.28
2023-03-26T06:41:35.952Z,99843.44
2023-03-26T06:44:37.804Z,99850.78
2023-03-26T06:47:39.628Z,99844.91
2023-03-26T06:50:41.525Z,99843.91
2023-03-26T06:53:43.461Z,99854.47
2023-03-26T06:56:45.444Z,99848.16
2023-03-26T06:59:47.392Z,99860.91
2023-03-26T07:02:49.278Z,99861.91
2023-03-26T07:05:51.273Z,99851.72
2023-03-26T07:08:55.454Z,99857.88
2023-03-26T07:11:57.520Z,99851.06
2023-03-26T07:15:00.407Z,99847.00
2023-03-26T07:18:02.446Z,99851.19
2023-03-26T07:21:04.596Z,99838.97
2023-03-26T07:24:06.777Z,99832.72
2023-03-26T07:27:29.083Z,99834.97
2023-03-26T07:30:46.306Z,99830.19
2023-03-26T07:33:57.606Z,99848.25
2023-03-26T07:37:02.346Z,99850.38
2023-03-26T07:40:10.358Z,99856.75
2023-03-26T07:43:19.021Z,99833.37
2023-03-26T07:46:24.033Z,99860.75
2023-03-26T07:49:27.362Z,99855.16
2023-03-26T07:52:29.428Z,99846.78
2023-03-26T07:55:31.605Z,99847.13
2023-03-26T07:58:42.621Z,99848.66
2023-03-26T08:02:14.193Z,99853.25
2023-03-26T08:05:20.881Z,99845.81
2023-03-26T08:08:43.533Z,99849.78
2023-03-26T08:11:48.254Z,99849.25
2023-03-26T08:14:53.225Z,99868.88
2023-03-26T08:17:55.093Z,99865.03
2023-03-26T08:21:01.243Z,99846.13
2023-03-26T08:24:21.071Z,99865.34
2023-03-26T08:27:23.683Z,99856.16
2023-03-26T08:30:26.164Z,99863.09
2023-03-26T08:33:28.120Z,99858.31
2023-03-26T08:36:30.095Z,99858.28
2023-03-26T08:39:32.271Z,99853.50
2023-03-26T08:42:36.817Z,99857.06
2023-03-26T08:45:57.124Z,99858.13
2023-03-26T08:49:17.908Z,99856.37
2023-03-26T08:52:24.629Z,99856.00
2023-03-26T08:55:41.858Z,99850.38
2023-03-26T08:59:01.951Z,99841.91
2023-03-26T09:02:06.830Z,99841.91
2023-03-26T09:05:19.528Z,99840.22
2023-03-26T09:08:54.096Z,99838.63
2023-03-26T09:11:56.474Z,99826.22
2023-03-26T09:14:58.404Z,99821.22
2023-03-26T09:18:06.642Z,99818.66
2023-03-26T09:21:14.875Z,99819.09
2023-03-26T09:24:27.832Z,99813.13
2023-03-26T09:27:29.873Z,99814.09
2023-03-26T09:30:31.768Z,99807.62
2023-03-26T09:33:53.970Z,99816.56
2023-03-26T09:36:57.220Z,99817.00
2023-03-26T09:40:14.309Z,99815.81
2023-03-26T09:43:16.436Z,99800.25
2023-03-26T09:46:21.192Z,99794.13
2023-03-26T09:49:31.889Z,99791.62
2023-03-26T09:52:36.766Z,99788.13
2023-03-26T09:55:43.347Z,99790.09
2023-03-26T09:58:48.366Z,99768.66
2023-03-26T10:01:56.519Z,99765.97
2023-03-26T10:05:20.192Z,99754.91
2023-03-26T10:08:33.831Z,99759.94
2023-03-26T10:11:38.825Z,99739.81
2023-03-26T10:14:40.657Z,99729.22
2023-03-26T10:17:42.708Z,99728.19
2023-03-26T10:20:44.580Z,99724.50
2023-03-26T10:23:57.004Z,99734.72
2023-03-26T10:27:10.788Z,99727.81
2023-03-26T10:30:25.898Z,99730.50
2023-03-26T10:33:27.739Z,99740.63
2023-03-26T10:36:35.045Z,99755.84
2023-03-26T10:39:55.986Z,99762.47
2023-03-26T10:43:20.384Z,99766.78
2023-03-26T10:46:29.775Z,99764.09
2023-03-26T10:49:34.955Z,99748.34
2023-03-26T10:52:36.853Z,99730.97
2023-03-26T10:55:39.765Z,99733.09
2023-03-26T10:58:48.462Z,99726.66
2023-03-26T11:01:51.892Z,99716.72
2023-03-26T11:04:53.870Z,99697.84
2023-03-26T11:08:16.096Z,99697.16
2023-03-26T11:11:17.920Z,99693.94
2023-03-26T11:14:38.002Z,99674.09
2023-03-26T11:17:55.592Z,99675.50
2023-03-26T11:21:19.125Z,99680.03
2023-03-26T11:24:22.240Z,99666.28
2023-03-26T11:27:53.709Z,99665.19
2023-03-26T11:30:59.449Z,99641.34
2023-03-26T11:34:05.759Z,99650.81
2023-03-26T11:37:12.569Z,99637.25
2023-03-26T11:40:15.598Z,99643.19
2023-03-26T11:43:19.044Z,99622.34
2023-03-26T11:46:22.451Z,99626.16
2023-03-26T11:49:24.444Z,99618.50
2023-03-26T11:52:26.843Z,99611.97
2023-03-26T11:55:28.789Z,99596.00
2023-03-26T11:58:33.982Z,99586.50
2023-03-26T12:01:52.015Z,99586.09
2023-03-26T12:04:55.500Z,99570.34
2023-03-26T12:08:01.162Z,99561.69
2023-03-26T12:11:04.551Z,99543.75
2023-03-26T12:14:06.506Z,99531.03
2023-03-26T12:17:11.680Z,99543.47
2023-03-26T12:20:39.656Z,99536.78
2023-03-26T12:23:44.370Z,99538.09
2023-03-26T12:26:46.434Z,99509.09
2023-03-26T12:30:07.260Z,99518.88
2023-03-26T12:33:16.431Z,99514.97
2023-03-26T12:36:24.665Z,99509.31
2023-03-26T12:40:06.738Z,99489.34
2023-03-26T12:44:46.607Z,99478.28
2023-03-26T12:47:58.926Z,99458.94
2023-03-26T12:49:49.673Z,99458.56
2023-03-26T12:53:02.456Z,99456.97
2023-03-26T12:56:10.348Z,99456.34
2023-03-26T12:59:24.268Z,99453.03
2023-03-26T13:02:44.751Z,99455.66
2023-03-26T13:06:02.846Z,99445.53
2023-03-26T13:09:07.948Z,99448.03
2023-03-26T13:12:28.546Z,99442.53
2023-03-26T13:15:37.563Z,99443.81
2023-03-26T13:18:45.668Z,99431.88
2023-03-26T13:22:00.404Z,99410.41
2023-03-26T13:25:07.703Z,99407.50
2023-03-26T13:28:18.654Z,99409.41
2023-03-26T13:31:32.742Z,99399.50
2023-03-26T13:34:48.291Z,99400.00
2023-03-26T13:38:08.548Z,99401.34
2023-03-26T13:41:20.400Z,99403.91
2023-03-26T13:44:25.363Z,99379.00
2023-03-26T13:47:28.715Z,99377.41
2023-03-26T13:50:31.065Z,99381.66
2023-03-26T13:53:34.990Z,99382.72
2023-03-26T13:56:39.726Z,99379.88
2023-03-26T13:59:45.789Z,99376.69
2023-03-26T14:02:56.360Z,99369.25
2023-03-26T14:05:59.614Z,99358.13
2023-03-26T14:09:10.970Z,99354.22
2023-03-26T14:12:24.849Z,99350.94
2023-03-26T14:15:44.080Z,99347.63
2023-03-26T14:18:55.281Z,99336.41
2023-03-26T14:22:13.991Z,99337.00
2023-03-26T14:25:25.353Z,99327.50
2023-03-26T14:28:47.298Z,99336.81
2023-03-26T14:32:08.231Z,99333.88
2023-03-26T14:35:16.594Z,99327.03
2023-03-26T14:38:18.747Z,99312.28
2023-03-26T14:41:43.926Z,99316.06
2023-03-26T14:44:48.928Z,99301.88
2023-03-26T14:47:51.482Z,99305.13
2023-03-26T14:50:54.562Z,99297.56
2023-03-26T14:53:59.272Z,99300.22
2023-03-26T14:57:19.882Z,99299.00
2023-03-26T15:00:40.782Z,99297.19
2023-03-26T15:04:01.386Z,99294.22
2023-03-26T15:07:22.284Z,99272.62
2023-03-26T15:10:24.063Z,99274.44
2023-03-26T15:13:42.103Z,99266.88
2023-03-26T15:16:47.084Z,99256.94
2023-03-26T15:19:51.798Z,99259.34
2023-03-26T15:23:12.560Z,99256.97
2023-03-26T15:26:41.714Z,99253.03
2023-03-26T15:29:46.557Z,99254.97
2023-03-26T15:32:57.222Z,99247.16
2023-03-26T15:36:05.363Z,99237.19
2023-03-26T15:39:16.361Z,99236.63
2023-03-26T15:42:30.793Z,99231.72
2023-03-26T15:45:32.682Z,99233.84
2023-03-26T15:48:45.191Z,99226.53
2023-03-26T15:51:53.157Z,99221.47
2023-03-26T15:55:31.447Z,99226.00
2023-03-26T15:58:51.975Z,99221.72
2023-03-26T16:02:11.214Z,99215.41
2023-03-26T16:05:32.241Z,99208.72
2023-03-26T16:08:38.836Z,99200.78
2023-03-26T16:11:54.876Z,99192.78
2023-03-26T16:15:07.418Z,99180.28
2023-03-26T16:18:10.265Z,99185.22
2023-03-26T16:21:32.047Z,99175.97
2023-03-26T16:24:42.416Z,99170.72
2023-03-26T16:27:45.309Z,99156.44
2023-03-26T16:31:00.372Z,99151.22
2023-03-26T16:34:05.879Z,99142.84
2023-03-26T16:37:26.720Z,99152.03
2023-03-26T16:40:32.549Z,99153.94
2023-03-26T16:43:39.679Z,99147.56
2023-03-26T16:46:41.573Z,99133.50
2023-03-26T16:50:12.865Z,99153.72
2023-03-26T16:53:17.971Z,99155.69
2023-03-26T16:56:31.965Z,99163.25
2023-03-26T16:59:40.181Z,99160.16
2023-03-26T17:02:48.120Z,99144.28
2023-03-26T17:05:56.885Z,99164.47
2023-03-26T17:09:09.349Z,99157.38
2023-03-26T17:12:21.645Z,99157.72
2023-03-26T17:15:29.880Z,99148.25
2023-03-26T17:19:07.483Z,99150.47
2023-03-26T17:22:11.581Z,99149.63
2023-03-26T17:25:43.015Z,99150.94
2023-03-26T17:29:03.580Z,99165.56
2023-03-26T17:32:15.498Z,99166.75
2023-03-26T17:35:17.435Z,99158.09
2023-03-26T17:38:22.677Z,99163.63
2023-03-26T17:41:43.510Z,99163.56
2023-03-26T17:44:55.666Z,99155.19
2023-03-26T17:48:02.417Z,99143.75
2023-03-26T17:51:06.649Z,99153.69
2023-03-26T17:54:28.880Z,99160.97
2023-03-26T17:57:40.264Z,99158.78
2023-03-26T18:00:42.798Z,99154.87
2023-03-26T18:03:49.684Z,99144.38
2023-03-26T18:06:55.724Z,99151.56
2023-03-26T18:10:13.018Z,99151.88
2023-03-26T18:13:21.103Z,99143.84
2023-03-26T18:16:29.170Z,99157.69
2023-03-26T18:19:32.102Z,99158.97
2023-03-26T18:22:34.142Z,99141.16
2023-03-26T18:25:35.983Z,99151.69
2023-03-26T18:28:41.763Z,99152.16
2023-03-26T18:31:43.903Z,99145.88
2023-03-26T18:34:50.209Z,99134.34
2023-03-26T18:37:53.434Z,99135.25
2023-03-26T18:40:55.522Z,99126.50
2023-03-26T18:44:01.435Z,99133.94
2023-03-26T18:47:07.160Z,99111.88
2023-03-26T18:50:13.995Z,99126.66
2023-03-26T18:53:17.131Z,99111.34
2023-03-26T18:56:39.508Z,99121.09
2023-03-26T18:59:43.828Z,99106.56
2023-03-26T19:02:46.637Z,99092.22
2023-03-26T19:05:48.586Z,99081.16
2023-03-26T19:08:50.578Z,99087.47
2023-03-26T19:12:16.126Z,99083.50
2023-03-26T19:15:18.031Z,99085.03
2023-03-26T19:18:21.071Z,99072.16
2023-03-26T19:21:23.464Z,99072.34
2023-03-26T19:24:25.670Z,99081.75
2023-03-26T19:27:27.540Z,99081.66
2023-03-26T19:30:30.894Z,99058.84
2023-03-26T19:33:34.015Z,99072.50
2023-03-26T19:36:37.048Z,99061.22
2023-03-26T19:40:01.584Z,99051.78
2023-03-26T19:43:04.523Z,99052.56
2023-03-26T19:46:07.401Z,99044.22
2023-03-26T19:49:22.303Z,99042.66
2023-03-26T19:52:34.284Z,99035.06
2023-03-26T19:55:36.413Z,99018.66
2023-03-26T19:58:38.836Z,99003.44
2023-03-26T20:01:40.777Z,99007.81
2023-03-26T20:04:43.000Z,99001.38
2023-03-26T20:07:45.007Z,99001.84
2023-03-26T20:10:46.957Z,98994.53
2023-03-26T20:13:49.289Z,98987.31
2023-03-26T20:16:51.262Z,98972.97
2023-03-26T20:19:54.253Z,98965.75
2023-03-26T20:22:56.174Z,98967.25
2023-03-26T20:25:58.262Z,98956.28
2023-03-26T20:29:00.245Z,98933.66
2023-03-26T20:32:06.338Z,98930.91
2023-03-26T20:35:15.158Z,98931.50
2023-03-26T20:38:18.229Z,98936.09
2023-03-26T20:41:22.896Z,98936.53
2023-03-26T20:44:26.833Z,98933.28
2023-03-26T20:47:28.758Z,98922.03
2023-03-26T20:50:31.609Z,98924.03
2023-03-26T20:53:33.596Z,98926.72
2023-03-26T20:56:37.759Z,98918.69
2023-03-26T20:59:39.804Z,98892.31
2023-03-26T21:02:43.279Z,98906.31
2023-03-26T21:05:48.405Z,98908.12
2023-03-26T21:08:50.445Z,98900.03
2023-03-26T21:11:52.361Z,98895.72
2023-03-26T21:14:55.739Z,98898.47
2023-03-26T21:17:58.229Z,98891.91
2023-03-26T21:21:20.013Z,98883.84
2023-03-26T21:24:29.706Z,98888.41
2023-03-26T21:27:47.680Z,98897.19
2023-03-26T21:30:51.029Z,98910.25
2023-03-26T21:33:53.018Z,98924.50
2023-03-26T21:36:55.014Z,98937.62
2023-03-26T21:39:57.251Z,98933.87
2023-03-26T21:42:59.345Z,98946.63
2023-03-26T21:46:01.457Z,98946.91
2023-03-26T21:49:03.673Z,98951.03
2023-03-26T21:52:05.778Z,98955.06
2023-03-26T21:55:09.250Z,98959.00
2023-03-26T21:58:21.106Z,98952.75
2023-03-26T22:01:39.091Z,98945.91
2023-03-26T22:04:48.883Z,98941.25
2023-03-26T22:07:50.907Z,98924.91
2023-03-26T22:10:52.905Z,98930.78
2023-03-26T22:13:56.804Z,98925.00
2023-03-26T22:16:58.667Z,98937.41
2023-03-26T22:20:01.555Z,98932.38
2023-03-26T22:23:03.455Z,98936.94
2023-03-26T22:26:05.943Z,98924.22
2023-03-26T22:29:08.230Z,98921.16
2023-03-26T22:32:10.247Z,98917.09
2023-03-26T22:35:12.919Z,98920.91
2023-03-26T22:38:16.967Z,98908.28
2023-03-26T22:41:18.854Z,98913.56
2023-03-26T22:44:20.827Z,98913.69
2023-03-26T22:47:22.860Z,98914.97
2023-03-26T22:50:24.773Z,98905.16
2023-03-26T22:53:26.654Z,98896.28
2023-03-26T22:56:28.577Z,98900.00
2023-03-26T22:59:30.435Z,98889.47
2023-03-26T23:02:32.328Z,98877.03
2023-03-26T23:05:34.721Z,98880.50
2023-03-26T23:08:38.087Z,98872.84
2023-03-26T23:11:40.082Z,98874.59
2023-03-26T23:14:41.914Z,98864.75
2023-03-26T23:17:43.741Z,98871.47
2023-03-26T23:20:52.748Z,98868.09
2023-03-26T23:23:54.644Z,98858.56
2023-03-26T23:26:56.559Z,98855.69
2023-03-26T23:29:58.586Z,98850.97
2023-03-26T23:33:01.722Z,98847.06
2023-03-26T23:36:08.816Z,98844.00
2023-03-26T23:39:10.931Z,98847.25
2023-03-26T23:42:12.820Z,98848.34
2023-03-26T23:45:14.794Z,98834.63
2023-03-26T23:48:17.517Z,98833.88
2023-03-26T23:51:22.447Z,98826.78
2023-03-26T23:54:25.678Z,98808.97
2023-03-26T23:57:27.574Z,98812.72
